Time;durP1;ratioP1;P1;durP2;ratioP2;P2;SDS_P1;SDS_P2;PMS_P1;PMS_P2;Temp;Humidity;BMP_temperature;BMP_pressure;BME280_temperature;BME280_humidity;BME280_pressure;Samples;Min_cycle;Max_cycle;Signal;HPM_P1;HPM_P2
2023/03/18 00:01:06;;;;;;;10.25;3.95;;;;;;;;;;5013008;28;20030;-80
2023/03/18 00:03:32;;;;;;;8.45;4.35;;;;;;;;;;5029180;28;20129;-81
2023/03/18 00:06:10;;;;;;;7.85;3.53;;;;;;;;;;5016171;28;20490;-80
2023/03/18 00:08:36;;;;;;;7.00;3.95;;;;;;;;;;5022833;28;20026;-81
2023/03/18 00:11:04;;;;;;;5.97;3.25;;;;;;;;;;5018137;28;20437;-81
2023/03/18 00:13:30;;;;;;;9.50;4.30;;;;;;;;;;5025199;28;20052;-81
2023/03/18 00:15:56;;;;;;;9.27;4.10;;;;;;;;;;5023375;28;20035;-81
2023/03/18 00:18:23;;;;;;;7.70;3.92;;;;;;;;;;5018898;28;20056;-81
2023/03/18 00:20:49;;;;;;;7.95;4.07;;;;;;;;;;5019971;28;20030;-80
2023/03/18 00:23:15;;;;;;;7.88;4.00;;;;;;;;;;5027288;28;20037;-80
2023/03/18 00:25:42;;;;;;;6.55;3.80;;;;;;;;;;5006794;28;20037;-80
2023/03/18 00:28:08;;;;;;;7.53;4.20;;;;;;;;;;5015278;28;20372;-79
2023/03/18 00:30:37;;;;;;;8.13;3.72;;;;;;;;;;5010924;28;20521;-80
2023/03/18 00:33:04;;;;;;;9.52;3.70;;;;;;;;;;5026208;28;20133;-80
2023/03/18 00:35:30;;;;;;;9.18;3.63;;;;;;;;;;5026033;28;20109;-80
2023/03/18 00:37:57;;;;;;;10.02;4.55;;;;;;;;;;5024977;28;20029;-80
2023/03/18 00:40:29;;;;;;;7.18;4.07;;;;;;;;;;5022674;28;20107;-80
2023/03/18 00:43:06;;;;;;;7.43;4.22;;;;;;;;;;5019038;28;20053;-79
2023/03/18 00:45:34;;;;;;;6.85;3.83;;;;;;;;;;5021289;28;20016;-80
2023/03/18 00:48:00;;;;;;;7.40;3.42;;;;;;;;;;5018383;28;20110;-79
2023/03/18 00:50:26;;;;;;;9.57;4.32;;;;;;;;;;5018889;28;20034;-79
2023/03/18 00:52:52;;;;;;;7.13;3.70;;;;;;;;;;5007350;28;20061;-80
2023/03/18 00:55:19;;;;;;;6.97;3.55;;;;;;;;;;5007162;28;20030;-80
2023/03/18 00:57:45;;;;;;;7.60;3.65;;;;;;;;;;5011019;28;20037;-80
2023/03/18 01:00:15;;;;;;;7.68;3.58;;;;;;;;;;5018462;28;20049;-80
2023/03/18 01:02:41;;;;;;;7.85;3.88;;;;;;;;;;5027563;28;20022;-80
2023/03/18 01:05:08;;;;;;;7.20;3.55;;;;;;;;;;5016838;28;20014;-80
2023/03/18 01:07:35;;;;;;;8.68;3.88;;;;;;;;;;5005175;28;20037;-80
2023/03/18 01:10:01;;;;;;;7.95;3.88;;;;;;;;;;5021732;28;20102;-80
2023/03/18 01:12:27;;;;;;;6.72;3.88;;;;;;;;;;5024650;28;20057;-79
2023/03/18 01:14:53;;;;;;;8.77;3.58;;;;;;;;;;5013818;28;20023;-79
2023/03/18 01:17:19;;;;;;;7.18;3.88;;;;;;;;;;5007512;28;20019;-80
2023/03/18 01:19:46;;;;;;;6.63;3.20;;;;;;;;;;5020789;28;20032;-80
2023/03/18 01:25:16;;;;;;;;;;;;;;;;;;5026193;28;20068;-81
2023/03/18 01:27:42;;;;;;;7.85;3.38;;;;;;;;;;5025420;28;19913;-80
2023/03/18 01:30:12;;;;;;;8.05;3.58;;;;;;;;;;5015988;28;20030;-82
2023/03/18 01:32:38;;;;;;;8.38;3.75;;;;;;;;;;5009732;28;20083;-80
2023/03/18 01:35:04;;;;;;;7.28;3.15;;;;;;;;;;5022221;28;20026;-81
2023/03/18 01:37:30;;;;;;;7.32;3.85;;;;;;;;;;5021111;28;20113;-81
2023/03/18 01:39:57;;;;;;;6.78;3.50;;;;;;;;;;5013774;28;20054;-80
2023/03/18 01:42:23;;;;;;;6.22;3.10;;;;;;;;;;5016002;28;20054;-81
2023/03/18 01:44:49;;;;;;;7.80;3.63;;;;;;;;;;5029370;28;20093;-79
2023/03/18 01:47:16;;;;;;;6.38;3.40;;;;;;;;;;5029629;28;20034;-79
2023/03/18 01:49:44;;;;;;;7.32;4.15;;;;;;;;;;5017530;28;20036;-80
2023/03/18 01:52:17;;;;;;;6.63;3.50;;;;;;;;;;5019097;28;20034;-82
2023/03/18 01:54:46;;;;;;;6.03;3.60;;;;;;;;;;5011631;28;20026;-81
2023/03/18 01:57:12;;;;;;;7.60;3.88;;;;;;;;;;5006414;28;20097;-81
2023/03/18 01:59:40;;;;;;;7.68;3.97;;;;;;;;;;5021203;28;20107;-81
2023/03/18 02:02:08;;;;;;;7.93;3.85;;;;;;;;;;5021011;28;20420;-81
2023/03/18 02:04:42;;;;;;;6.25;3.33;;;;;;;;;;5009053;28;20076;-81
2023/03/18 02:07:13;;;;;;;5.90;3.63;;;;;;;;;;5012571;28;20034;-81
2023/03/18 02:09:39;;;;;;;7.85;3.75;;;;;;;;;;5026421;28;20038;-80
2023/03/18 02:12:07;;;;;;;6.03;3.20;;;;;;;;;;5020448;28;20029;-81
2023/03/18 02:14:33;;;;;;;7.50;3.78;;;;;;;;;;5009449;28;20042;-81
2023/03/18 02:17:04;;;;;;;7.50;3.58;;;;;;;;;;5009009;28;20836;-80
2023/03/18 02:19:49;;;;;;;8.40;4.20;;;;;;;;;;5011044;28;20029;-80
2023/03/18 02:22:30;;;;;;;7.28;3.83;;;;;;;;;;5019905;28;20041;-82
2023/03/18 02:25:06;;;;;;;8.98;4.05;;;;;;;;;;5007482;28;20156;-83
2023/03/18 02:27:34;;;;;;;7.93;4.20;;;;;;;;;;5006358;28;20034;-81
2023/03/18 02:30:02;;;;;;;9.27;4.78;;;;;;;;;;5012769;28;20053;-81
2023/03/18 02:32:30;;;;;;;8.85;3.90;;;;;;;;;;5008681;28;20070;-81
2023/03/18 02:34:56;;;;;;;8.07;4.07;;;;;;;;;;5013702;28;20082;-81
2023/03/18 02:37:23;;;;;;;7.03;4.22;;;;;;;;;;5014891;28;20072;-81
2023/03/18 02:39:50;;;;;;;8.32;3.60;;;;;;;;;;5016406;28;20102;-81
2023/03/18 02:42:26;;;;;;;8.43;4.03;;;;;;;;;;5006262;28;20034;-81
2023/03/18 02:44:52;;;;;;;8.68;3.80;;;;;;;;;;5014567;28;20025;-81
2023/03/18 02:47:19;;;;;;;7.07;3.42;;;;;;;;;;5020190;28;20030;-82
2023/03/18 02:49:45;;;;;;;8.27;3.63;;;;;;;;;;5006695;28;20533;-81
2023/03/18 02:52:11;;;;;;;8.00;4.60;;;;;;;;;;5008001;28;20025;-81
2023/03/18 02:54:37;;;;;;;7.40;3.63;;;;;;;;;;5010488;28;20033;-80
2023/03/18 02:57:03;;;;;;;8.82;3.80;;;;;;;;;;5022516;28;20029;-80
2023/03/18 02:59:31;;;;;;;7.00;3.97;;;;;;;;;;5021775;28;20073;-81
2023/03/18 03:01:58;;;;;;;7.93;4.05;;;;;;;;;;5009262;28;20098;-80
2023/03/18 03:04:25;;;;;;;9.65;4.47;;;;;;;;;;5025061;28;20026;-81
2023/03/18 03:06:51;;;;;;;7.28;4.07;;;;;;;;;;5016334;28;20034;-80
2023/03/18 03:09:18;;;;;;;8.63;4.47;;;;;;;;;;5007775;28;20030;-81
2023/03/18 03:11:45;;;;;;;9.05;4.13;;;;;;;;;;5010423;28;20026;-81
2023/03/18 03:14:13;;;;;;;7.50;4.22;;;;;;;;;;5022803;28;20037;-81
2023/03/18 03:16:39;;;;;;;8.20;4.93;;;;;;;;;;5028202;28;20022;-81
2023/03/18 03:19:05;;;;;;;8.18;3.92;;;;;;;;;;5026676;28;20032;-80
2023/03/18 03:21:32;;;;;;;6.93;3.90;;;;;;;;;;5014610;28;20034;-81
2023/03/18 03:23:58;;;;;;;7.25;3.80;;;;;;;;;;5020044;28;20037;-80
2023/03/18 03:26:24;;;;;;;9.13;4.40;;;;;;;;;;5007706;28;20092;-79
2023/03/18 03:28:50;;;;;;;7.35;4.00;;;;;;;;;;5004956;28;20022;-80
2023/03/18 03:31:17;;;;;;;6.80;3.75;;;;;;;;;;5016131;28;20112;-81
2023/03/18 03:33:43;;;;;;;7.07;4.28;;;;;;;;;;5020412;28;20052;-81
2023/03/18 03:36:10;;;;;;;9.25;4.60;;;;;;;;;;5008414;28;20027;-80
2023/03/18 03:38:37;;;;;;;10.48;4.55;;;;;;;;;;5025328;28;20089;-79
2023/03/18 03:41:04;;;;;;;9.32;4.07;;;;;;;;;;5017377;28;20030;-81
2023/03/18 03:43:30;;;;;;;8.07;4.53;;;;;;;;;;5007113;28;20041;-79
2023/03/18 03:45:56;;;;;;;8.48;4.20;;;;;;;;;;5018857;28;20030;-80
2023/03/18 03:48:22;;;;;;;9.85;4.55;;;;;;;;;;5006857;28;20031;-80
2023/03/18 03:50:49;;;;;;;10.98;4.20;;;;;;;;;;5024835;28;20022;-80
2023/03/18 03:53:16;;;;;;;7.80;4.20;;;;;;;;;;5018864;28;20080;-81
2023/03/18 03:55:42;;;;;;;7.35;4.00;;;;;;;;;;5007632;28;20095;-80
2023/03/18 03:58:08;;;;;;;9.15;4.63;;;;;;;;;;5007369;28;20053;-80
2023/03/18 04:00:34;;;;;;;7.72;4.30;;;;;;;;;;5009289;28;20089;-80
2023/03/18 04:03:00;;;;;;;8.23;4.07;;;;;;;;;;5020027;28;20014;-81
2023/03/18 04:05:26;;;;;;;10.75;4.32;;;;;;;;;;5014898;28;20410;-80
2023/03/18 04:07:54;;;;;;;10.02;4.45;;;;;;;;;;5014780;28;20046;-80
2023/03/18 04:10:21;;;;;;;8.32;4.30;;;;;;;;;;5007112;28;20093;-80
2023/03/18 04:12:48;;;;;;;9.23;4.25;;;;;;;;;;5006655;28;20033;-80
2023/03/18 04:15:15;;;;;;;8.00;4.47;;;;;;;;;;5015379;28;20101;-80
2023/03/18 04:17:41;;;;;;;8.82;4.72;;;;;;;;;;5024824;28;20022;-80
2023/03/18 04:20:08;;;;;;;10.50;5.05;;;;;;;;;;5025434;28;20070;-79
2023/03/18 04:22:35;;;;;;;11.50;4.63;;;;;;;;;;5021448;28;20104;-80
2023/03/18 04:25:01;;;;;;;9.57;4.22;;;;;;;;;;5020805;28;20028;-80
2023/03/18 04:27:28;;;;;;;7.80;4.03;;;;;;;;;;5008604;28;20026;-80
2023/03/18 04:29:55;;;;;;;10.60;4.10;;;;;;;;;;5026805;28;20033;-80
2023/03/18 04:32:21;;;;;;;9.27;4.35;;;;;;;;;;5007915;28;20030;-79
2023/03/18 04:34:47;;;;;;;8.90;3.78;;;;;;;;;;5025708;28;20040;-79
2023/03/18 04:37:13;;;;;;;8.07;4.15;;;;;;;;;;5014836;28;20041;-79
2023/03/18 04:39:40;;;;;;;9.07;5.15;;;;;;;;;;5008436;28;20434;-80
2023/03/18 04:42:06;;;;;;;7.80;3.72;;;;;;;;;;5019951;28;20053;-82
2023/03/18 04:44:32;;;;;;;7.85;4.45;;;;;;;;;;5027820;28;20034;-80
2023/03/18 04:46:59;;;;;;;10.05;4.50;;;;;;;;;;5006622;28;20027;-80
2023/03/18 04:49:25;;;;;;;10.60;5.00;;;;;;;;;;5011604;28;20041;-81
2023/03/18 04:51:51;;;;;;;10.23;4.55;;;;;;;;;;5018083;28;20037;-80
2023/03/18 04:54:18;;;;;;;9.82;4.88;;;;;;;;;;5024667;28;20029;-79
2023/03/18 04:56:45;;;;;;;7.15;4.13;;;;;;;;;;5025810;28;20085;-79
2023/03/18 04:59:11;;;;;;;8.15;4.80;;;;;;;;;;5007161;28;20085;-80
2023/03/18 05:01:37;;;;;;;8.23;4.25;;;;;;;;;;5012662;28;20053;-80
2023/03/18 05:04:03;;;;;;;6.75;3.67;;;;;;;;;;5014005;28;20026;-80
2023/03/18 05:06:30;;;;;;;8.70;4.55;;;;;;;;;;5018809;28;20557;-81
2023/03/18 05:08:57;;;;;;;8.38;4.00;;;;;;;;;;5025710;28;20030;-80
2023/03/18 05:11:24;;;;;;;9.10;4.70;;;;;;;;;;5015412;28;20041;-81
2023/03/18 05:13:50;;;;;;;11.32;5.07;;;;;;;;;;5005863;28;20053;-79
2023/03/18 05:16:17;;;;;;;7.88;4.32;;;;;;;;;;5011659;28;20022;-80
2023/03/18 05:18:43;;;;;;;9.27;4.50;;;;;;;;;;5019622;28;20022;-80
2023/03/18 05:21:10;;;;;;;11.35;4.68;;;;;;;;;;5017883;28;20046;-80
2023/03/18 05:23:36;;;;;;;8.02;4.10;;;;;;;;;;5024229;28;20105;-80
2023/03/18 05:26:04;;;;;;;9.52;4.50;;;;;;;;;;5009942;28;20037;-79
2023/03/18 05:28:30;;;;;;;9.25;4.38;;;;;;;;;;5011754;28;20037;-80
2023/03/18 05:30:56;;;;;;;9.50;4.13;;;;;;;;;;5016265;28;20087;-79
2023/03/18 05:33:22;;;;;;;9.27;4.68;;;;;;;;;;5014394;28;20025;-81
2023/03/18 05:35:49;;;;;;;9.07;3.90;;;;;;;;;;5025714;28;20023;-79
2023/03/18 05:38:15;;;;;;;8.00;3.72;;;;;;;;;;5013251;28;20018;-81
2023/03/18 05:40:42;;;;;;;7.85;4.05;;;;;;;;;;5013250;28;20027;-80
2023/03/18 05:43:09;;;;;;;9.32;5.07;;;;;;;;;;5020950;28;20102;-81
2023/03/18 05:45:35;;;;;;;11.07;4.55;;;;;;;;;;5013480;28;20034;-80
2023/03/18 05:48:01;;;;;;;8.45;5.13;;;;;;;;;;5003834;28;20026;-81
2023/03/18 05:50:41;;;;;;;8.65;4.57;;;;;;;;;;5007884;28;20034;-81
2023/03/18 05:53:08;;;;;;;7.55;4.43;;;;;;;;;;5003299;28;20478;-80
2023/03/18 05:55:34;;;;;;;9.77;4.70;;;;;;;;;;5021369;28;20029;-81
2023/03/18 05:58:00;;;;;;;8.65;4.25;;;;;;;;;;5005397;28;20018;-83
2023/03/18 06:00:28;;;;;;;8.27;3.97;;;;;;;;;;5009161;28;20038;-81
2023/03/18 06:02:55;;;;;;;9.45;5.03;;;;;;;;;;5007022;28;20079;-81
2023/03/18 06:05:21;;;;;;;9.75;5.05;;;;;;;;;;5002914;28;20025;-79
2023/03/18 06:07:49;;;;;;;9.77;4.65;;;;;;;;;;5005796;28;20054;-81
2023/03/18 06:10:15;;;;;;;10.02;5.25;;;;;;;;;;5011909;28;20026;-80
2023/03/18 06:12:43;;;;;;;10.30;5.00;;;;;;;;;;5018281;28;20053;-80
2023/03/18 06:15:10;;;;;;;9.73;5.40;;;;;;;;;;5011655;28;20097;-80
2023/03/18 06:17:36;;;;;;;8.38;4.90;;;;;;;;;;5022023;28;20026;-81
2023/03/18 06:20:03;;;;;;;10.90;4.70;;;;;;;;;;5018527;28;20034;-81
2023/03/18 06:22:31;;;;;;;8.63;4.55;;;;;;;;;;5018065;28;20030;-80
2023/03/18 06:24:57;;;;;;;7.90;4.32;;;;;;;;;;5014658;28;20022;-82
2023/03/18 06:27:23;;;;;;;9.77;5.43;;;;;;;;;;5002688;28;20049;-80
2023/03/18 06:29:49;;;;;;;8.23;4.22;;;;;;;;;;5007453;28;20030;-81
2023/03/18 06:32:15;;;;;;;8.05;4.35;;;;;;;;;;5003900;28;20031;-80
2023/03/18 06:34:41;;;;;;;9.57;4.80;;;;;;;;;;5014452;28;20022;-80
2023/03/18 06:37:08;;;;;;;10.27;4.68;;;;;;;;;;5013635;28;20025;-82
2023/03/18 06:39:34;;;;;;;9.98;5.22;;;;;;;;;;5009201;28;20026;-81
2023/03/18 06:42:01;;;;;;;10.45;5.07;;;;;;;;;;5003315;28;20414;-82
2023/03/18 06:44:27;;;;;;;10.70;5.35;;;;;;;;;;5001835;28;20143;-81
2023/03/18 06:46:53;;;;;;;12.10;5.70;;;;;;;;;;5009712;28;20025;-83
2023/03/18 06:49:19;;;;;;;12.05;5.78;;;;;;;;;;5015722;28;20385;-80
2023/03/18 06:51:46;;;;;;;10.00;4.72;;;;;;;;;;5008175;28;20116;-83
2023/03/18 06:54:13;;;;;;;9.80;4.97;;;;;;;;;;5004137;28;20509;-83
2023/03/18 06:56:40;;;;;;;9.98;6.18;;;;;;;;;;5008448;28;20133;-80
2023/03/18 06:59:08;;;;;;;8.30;4.65;;;;;;;;;;4999902;28;20140;-81
2023/03/18 07:01:34;;;;;;;9.65;4.95;;;;;;;;;;5015081;28;20028;-81
2023/03/18 07:04:01;;;;;;;7.82;4.43;;;;;;;;;;5007182;28;20021;-82
2023/03/18 07:06:28;;;;;;;10.13;4.45;;;;;;;;;;5025522;28;20375;-82
2023/03/18 07:08:55;;;;;;;9.43;4.93;;;;;;;;;;5015405;28;20040;-82
2023/03/18 07:11:21;;;;;;;10.65;4.82;;;;;;;;;;5018438;28;20498;-82
2023/03/18 07:13:47;;;;;;;9.07;4.97;;;;;;;;;;5012905;28;20029;-81
2023/03/18 07:16:13;;;;;;;9.10;5.13;;;;;;;;;;5001160;28;20030;-83
2023/03/18 07:18:39;;;;;;;9.00;4.97;;;;;;;;;;5005763;28;20493;-81
2023/03/18 07:21:05;;;;;;;7.93;4.75;;;;;;;;;;5014073;28;20514;-83
2023/03/18 07:23:31;;;;;;;10.60;5.10;;;;;;;;;;5021880;28;20031;-82
2023/03/18 07:25:57;;;;;;;8.93;4.75;;;;;;;;;;5019164;28;20086;-82
2023/03/18 07:28:24;;;;;;;9.40;5.32;;;;;;;;;;5016314;28;20040;-82
2023/03/18 07:30:50;;;;;;;8.30;4.63;;;;;;;;;;5002293;28;20050;-83
2023/03/18 07:33:16;;;;;;;8.82;5.03;;;;;;;;;;5019825;28;20029;-83
2023/03/18 07:35:42;;;;;;;9.10;5.28;;;;;;;;;;5028053;28;20018;-80
2023/03/18 07:38:09;;;;;;;11.35;6.47;;;;;;;;;;5032808;28;20506;-83
2023/03/18 07:40:35;;;;;;;9.20;5.40;;;;;;;;;;5002771;28;20457;-82
2023/03/18 07:43:02;;;;;;;9.40;5.13;;;;;;;;;;5000015;28;20026;-80
2023/03/18 07:45:28;;;;;;;13.98;5.95;;;;;;;;;;5006166;28;20050;-80
2023/03/18 07:47:54;;;;;;;9.10;5.10;;;;;;;;;;5014054;28;20093;-81
2023/03/18 07:50:20;;;;;;;8.90;5.40;;;;;;;;;;5001984;28;20065;-82
2023/03/18 07:52:47;;;;;;;9.90;4.97;;;;;;;;;;5015448;28;20076;-81
2023/03/18 07:55:15;;;;;;;8.60;4.90;;;;;;;;;;5005723;28;20030;-83
2023/03/18 07:57:42;;;;;;;8.82;5.18;;;;;;;;;;5005527;28;20026;-81
2023/03/18 08:00:09;;;;;;;8.68;4.90;;;;;;;;;;5000045;28;20038;-83
2023/03/18 08:02:35;;;;;;;9.23;5.10;;;;;;;;;;5009697;28;20030;-82
2023/03/18 08:05:02;;;;;;;9.80;5.32;;;;;;;;;;5015595;28;20014;-82
2023/03/18 08:07:28;;;;;;;9.68;6.28;;;;;;;;;;5021548;28;20051;-82
2023/03/18 08:09:54;;;;;;;9.10;5.47;;;;;;;;;;5019106;28;20053;-81
2023/03/18 08:12:20;;;;;;;10.35;4.72;;;;;;;;;;5010035;28;20057;-82
2023/03/18 08:14:47;;;;;;;10.38;5.60;;;;;;;;;;5015160;28;20288;-82
2023/03/18 08:17:13;;;;;;;11.50;5.95;;;;;;;;;;5017092;28;20543;-83
2023/03/18 08:19:39;;;;;;;10.43;6.20;;;;;;;;;;5020968;28;20022;-80
2023/03/18 08:22:05;;;;;;;13.63;6.22;;;;;;;;;;5019954;28;20467;-83
2023/03/18 08:24:31;;;;;;;9.75;5.47;;;;;;;;;;5002695;28;20022;-84
2023/03/18 08:26:57;;;;;;;10.80;4.88;;;;;;;;;;5004942;28;20026;-83
2023/03/18 08:29:23;;;;;;;9.52;5.55;;;;;;;;;;5008553;28;20097;-80
2023/03/18 08:31:50;;;;;;;9.85;5.18;;;;;;;;;;5001297;28;20449;-83
2023/03/18 08:34:16;;;;;;;11.82;5.68;;;;;;;;;;5001595;28;20019;-82
2023/03/18 08:36:42;;;;;;;10.73;5.30;;;;;;;;;;5005288;28;20533;-82
2023/03/18 08:39:08;;;;;;;11.13;5.50;;;;;;;;;;5010941;28;20022;-83
2023/03/18 08:41:35;;;;;;;10.32;5.90;;;;;;;;;;5003531;28;20392;-81
2023/03/18 08:44:01;;;;;;;9.75;5.00;;;;;;;;;;5006145;28;20034;-82
2023/03/18 08:46:27;;;;;;;13.05;5.95;;;;;;;;;;5003556;28;20043;-83
2023/03/18 08:48:53;;;;;;;10.45;5.30;;;;;;;;;;5004669;28;20061;-82
2023/03/18 08:51:21;;;;;;;8.73;5.43;;;;;;;;;;5009302;28;20057;-81
2023/03/18 08:53:47;;;;;;;9.45;5.00;;;;;;;;;;5013036;28;20021;-83
2023/03/18 08:56:14;;;;;;;8.63;4.72;;;;;;;;;;5006743;28;20418;-83
2023/03/18 08:58:40;;;;;;;7.78;4.97;;;;;;;;;;5022719;28;20069;-84
2023/03/18 09:01:06;;;;;;;9.00;5.10;;;;;;;;;;5023667;28;20049;-83
2023/03/18 09:03:33;;;;;;;11.10;5.65;;;;;;;;;;5022240;28;20030;-82
2023/03/18 09:05:59;;;;;;;12.68;6.20;;;;;;;;;;5022475;28;20030;-82
2023/03/18 09:08:27;;;;;;;11.00;5.75;;;;;;;;;;5022856;28;20056;-82
2023/03/18 09:10:53;;;;;;;9.32;5.03;;;;;;;;;;5016556;28;20034;-81
2023/03/18 09:13:19;;;;;;;9.77;5.78;;;;;;;;;;5013083;28;20026;-82
2023/03/18 09:15:45;;;;;;;8.43;5.20;;;;;;;;;;5021694;28;20098;-83
2023/03/18 09:18:15;;;;;;;12.50;5.85;;;;;;;;;;5025037;28;20025;-80
2023/03/18 09:20:42;;;;;;;9.38;5.50;;;;;;;;;;5024369;28;20034;-83
2023/03/18 09:23:09;;;;;;;9.10;5.47;;;;;;;;;;5021962;28;20022;-84
2023/03/18 09:25:35;;;;;;;9.02;5.03;;;;;;;;;;5021347;28;20040;-83
2023/03/18 09:28:01;;;;;;;11.60;5.70;;;;;;;;;;5021611;28;20049;-82
2023/03/18 09:30:29;;;;;;;9.57;5.72;;;;;;;;;;5028022;28;20037;-80
2023/03/18 09:32:55;;;;;;;9.35;5.93;;;;;;;;;;5017473;28;20074;-82
2023/03/18 09:35:22;;;;;;;11.75;5.80;;;;;;;;;;5014460;28;20045;-82
2023/03/18 09:37:47;;;;;;;10.18;6.10;;;;;;;;;;5024375;28;20025;-79
2023/03/18 09:40:25;;;;;;;9.80;5.72;;;;;;;;;;5021211;28;20461;-83
2023/03/18 09:43:10;;;;;;;10.40;5.65;;;;;;;;;;5014973;28;20021;-81
2023/03/18 09:45:49;;;;;;;11.32;6.07;;;;;;;;;;5002842;28;20122;-84
2023/03/18 09:48:17;;;;;;;12.00;5.78;;;;;;;;;;5002132;28;20026;-83
2023/03/18 09:51:10;;;;;;;8.77;5.30;;;;;;;;;;5002994;28;20030;-83
2023/03/18 09:53:45;;;;;;;8.88;6.10;;;;;;;;;;5004190;28;20130;-83
2023/03/18 09:56:15;;;;;;;10.85;6.13;;;;;;;;;;5011979;28;20544;-80
2023/03/18 09:58:58;;;;;;;10.82;5.45;;;;;;;;;;5010687;28;20050;-82
2023/03/18 10:01:26;;;;;;;9.43;5.53;;;;;;;;;;5000747;28;20022;-84
2023/03/18 10:04:02;;;;;;;9.40;5.25;;;;;;;;;;5015381;28;20033;-81
2023/03/18 10:06:28;;;;;;;9.75;5.30;;;;;;;;;;5020193;28;20030;-80
2023/03/18 10:08:54;;;;;;;11.50;5.93;;;;;;;;;;5021200;28;20061;-82
2023/03/18 10:11:23;;;;;;;9.38;5.85;;;;;;;;;;5020601;28;20026;-80
2023/03/18 10:14:08;;;;;;;10.60;5.25;;;;;;;;;;5004036;28;20032;-81
2023/03/18 10:16:43;;;;;;;10.45;6.07;;;;;;;;;;5001881;28;20058;-82
2023/03/18 10:19:09;;;;;;;9.80;6.03;;;;;;;;;;5001604;28;20042;-84
2023/03/18 10:21:55;;;;;;;9.52;5.70;;;;;;;;;;5002079;28;20038;-83
2023/03/18 10:24:21;;;;;;;10.25;5.60;;;;;;;;;;5032106;28;20053;-83
2023/03/18 10:27:02;;;;;;;12.85;7.05;;;;;;;;;;5024674;28;20030;-81
2023/03/18 10:29:28;;;;;;;10.07;5.93;;;;;;;;;;5023902;28;20512;-81
2023/03/18 10:32:11;;;;;;;10.25;5.82;;;;;;;;;;5024207;28;20030;-81
2023/03/18 10:34:56;;;;;;;9.68;5.63;;;;;;;;;;5004545;28;20019;-80
2023/03/18 10:37:22;;;;;;;11.32;5.95;;;;;;;;;;5012979;28;20037;-82
2023/03/18 10:39:48;;;;;;;12.07;5.97;;;;;;;;;;5005018;28;20058;-82
2023/03/18 10:42:25;;;;;;;10.50;6.03;;;;;;;;;;5004587;28;20026;-83
2023/03/18 10:44:52;;;;;;;10.50;5.88;;;;;;;;;;5008441;28;20037;-84
2023/03/18 10:47:22;;;;;;;10.55;6.00;;;;;;;;;;5002790;28;20026;-84
2023/03/18 10:49:57;;;;;;;11.32;6.00;;;;;;;;;;5022334;28;20033;-84
2023/03/18 10:52:40;;;;;;;10.05;5.93;;;;;;;;;;5009621;28;20029;-82
2023/03/18 10:55:16;;;;;;;10.32;5.57;;;;;;;;;;5022712;28;20029;-83
2023/03/18 10:57:42;;;;;;;10.25;6.32;;;;;;;;;;5022884;28;20053;-82
2023/03/18 11:00:28;;;;;;;10.43;5.35;;;;;;;;;;5023196;28;20046;-82
2023/03/18 11:02:54;;;;;;;13.25;6.90;;;;;;;;;;5001896;28;20023;-85
2023/03/18 11:05:32;;;;;;;8.98;6.00;;;;;;;;;;5002522;28;20033;-83
2023/03/18 11:08:27;;;;;;;8.40;5.72;;;;;;;;;;5009353;28;20038;-84
2023/03/18 11:10:54;;;;;;;9.43;5.82;;;;;;;;;;5006499;28;20065;-84
2023/03/18 11:13:21;;;;;;;10.55;6.25;;;;;;;;;;5013490;28;20031;-84
2023/03/18 11:15:55;;;;;;;10.45;6.03;;;;;;;;;;5000078;28;20499;-83
2023/03/18 11:18:25;;;;;;;9.05;5.43;;;;;;;;;;4999616;28;20015;-83
2023/03/18 11:20:58;;;;;;;9.85;6.13;;;;;;;;;;5001071;28;20032;-82
2023/03/18 11:26:26;;;;;;;9.50;6.03;;;;;;;;;;5001895;28;20037;-83
2023/03/18 11:29:09;;;;;;;9.10;5.82;;;;;;;;;;5000439;28;20102;-82
2023/03/18 11:31:35;;;;;;;;;;;;;;;;;;5001112;28;20038;-83
2023/03/18 11:34:07;;;;;;;10.68;6.53;;;;;;;;;;5004148;28;19910;-83
2023/03/18 11:36:33;;;;;;;12.38;6.63;;;;;;;;;;5004269;28;20309;-84
2023/03/18 11:42:03;;;;;;;;;;;;;;;;;;5006908;28;20036;-82
2023/03/18 11:44:30;;;;;;;11.48;5.97;;;;;;;;;;5002160;28;19906;-84
2023/03/18 11:47:03;;;;;;;9.50;5.63;;;;;;;;;;5005193;28;20094;-84
2023/03/18 11:49:30;;;;;;;8.40;5.47;;;;;;;;;;5000668;28;20023;-82
2023/03/18 11:52:22;;;;;;;10.73;6.05;;;;;;;;;;5004347;28;20117;-83
2023/03/18 11:54:54;;;;;;;12.23;6.35;;;;;;;;;;5006016;28;20026;-82
2023/03/18 11:57:40;;;;;;;10.43;6.18;;;;;;;;;;5000833;28;20030;-82
2023/03/18 12:00:45;;;;;;;10.93;6.80;;;;;;;;;;5010504;28;20050;-83
2023/03/18 12:03:11;;;;;;;11.57;6.72;;;;;;;;;;4989676;28;20023;-83
2023/03/18 12:06:01;;;;;;;10.65;6.18;;;;;;;;;;4997263;28;20026;-82
2023/03/18 12:08:49;;;;;;;12.82;7.40;;;;;;;;;;4954958;28;20035;-84
2023/03/18 12:11:43;;;;;;;10.68;6.13;;;;;;;;;;4977042;28;20027;-83
2023/03/18 12:14:11;;;;;;;10.95;6.03;;;;;;;;;;4997767;28;20053;-83
2023/03/18 12:16:47;;;;;;;9.77;5.97;;;;;;;;;;4996977;28;20034;-83
2023/03/18 12:19:28;;;;;;;11.80;6.47;;;;;;;;;;4997571;28;20117;-83
2023/03/18 12:21:54;;;;;;;11.60;6.45;;;;;;;;;;4981584;28;20041;-84
2023/03/18 12:24:32;;;;;;;9.55;6.30;;;;;;;;;;4994888;28;20074;-83
2023/03/18 12:27:17;;;;;;;10.48;6.45;;;;;;;;;;4994553;28;20038;-83
2023/03/18 12:29:59;;;;;;;12.98;6.03;;;;;;;;;;4997742;28;20034;-85
2023/03/18 12:32:30;;;;;;;11.40;6.17;;;;;;;;;;4998822;28;20030;-83
2023/03/18 12:35:06;;;;;;;12.05;5.90;;;;;;;;;;5011673;28;20038;-84
2023/03/18 12:37:33;;;;;;;11.10;6.57;;;;;;;;;;5022852;28;20077;-83
2023/03/18 12:40:03;;;;;;;8.77;5.72;;;;;;;;;;5019064;28;20022;-83
2023/03/18 12:43:05;;;;;;;11.05;6.18;;;;;;;;;;5017791;28;20049;-82
2023/03/18 12:45:41;;;;;;;12.03;6.63;;;;;;;;;;5013748;28;20033;-82
2023/03/18 12:48:20;;;;;;;8.88;5.43;;;;;;;;;;4998445;28;20045;-84
2023/03/18 12:50:48;;;;;;;12.57;5.88;;;;;;;;;;5006588;28;20037;-83
2023/03/18 12:53:24;;;;;;;10.63;6.10;;;;;;;;;;5019197;28;20088;-84
2023/03/18 12:55:53;;;;;;;13.07;6.22;;;;;;;;;;5010851;28;20029;-83
2023/03/18 12:58:27;;;;;;;10.10;6.07;;;;;;;;;;5016240;28;20042;-84
2023/03/18 13:00:53;;;;;;;11.35;5.95;;;;;;;;;;5018700;28;20121;-83
2023/03/18 13:03:20;;;;;;;10.98;5.90;;;;;;;;;;5020305;28;20061;-83
2023/03/18 13:05:51;;;;;;;10.40;5.50;;;;;;;;;;5014194;28;20085;-82
2023/03/18 13:08:36;;;;;;;9.82;5.85;;;;;;;;;;5005855;28;20561;-83
2023/03/18 13:11:05;;;;;;;9.52;5.43;;;;;;;;;;5014217;28;20045;-82
2023/03/18 13:13:33;;;;;;;8.43;5.70;;;;;;;;;;5006700;28;20545;-82
2023/03/18 13:16:00;;;;;;;10.77;5.80;;;;;;;;;;5007597;28;20093;-81
2023/03/18 13:18:26;;;;;;;8.63;5.07;;;;;;;;;;5012931;28;20085;-82
2023/03/18 13:20:53;;;;;;;10.10;5.20;;;;;;;;;;5010438;28;20022;-81
2023/03/18 13:23:43;;;;;;;9.60;5.28;;;;;;;;;;5002855;28;20089;-83
2023/03/18 13:26:25;;;;;;;8.73;5.13;;;;;;;;;;5011758;28;20045;-79
2023/03/18 13:28:51;;;;;;;10.75;5.90;;;;;;;;;;5012574;28;20432;-82
2023/03/18 13:31:21;;;;;;;10.23;6.00;;;;;;;;;;5016424;28;20026;-83
2023/03/18 13:34:06;;;;;;;10.20;5.93;;;;;;;;;;5008651;28;20023;-82
2023/03/18 13:36:38;;;;;;;10.32;5.75;;;;;;;;;;5001795;28;20018;-83
2023/03/18 13:39:07;;;;;;;9.30;5.97;;;;;;;;;;5013864;28;20022;-81
2023/03/18 13:41:42;;;;;;;11.27;6.03;;;;;;;;;;5014248;28;20030;-83
2023/03/18 13:44:16;;;;;;;10.25;5.70;;;;;;;;;;5012418;28;20038;-83
2023/03/18 13:46:46;;;;;;;8.15;4.75;;;;;;;;;;5014320;28;20094;-82
2023/03/18 13:49:17;;;;;;;10.55;5.32;;;;;;;;;;5016787;28;20087;-83
2023/03/18 13:51:49;;;;;;;9.50;5.53;;;;;;;;;;5005157;28;20501;-83
2023/03/18 13:54:19;;;;;;;10.30;5.78;;;;;;;;;;5015105;28;20026;-83
2023/03/18 13:56:54;;;;;;;12.20;5.68;;;;;;;;;;5018240;28;20040;-83
2023/03/18 13:59:32;;;;;;;8.30;5.40;;;;;;;;;;5015472;28;20446;-82
2023/03/18 14:01:59;;;;;;;8.98;5.35;;;;;;;;;;5023269;28;20476;-82
2023/03/18 14:04:31;;;;;;;10.13;5.63;;;;;;;;;;5018686;28;20030;-82
2023/03/18 14:07:18;;;;;;;8.98;5.53;;;;;;;;;;5010491;28;20026;-82
2023/03/18 14:09:59;;;;;;;9.02;4.80;;;;;;;;;;5004135;28;20075;-80
2023/03/18 14:12:32;;;;;;;9.30;6.03;;;;;;;;;;5003146;28;20027;-80
2023/03/18 14:14:58;;;;;;;;;;;;;;;;;;5004860;28;20026;-82
2023/03/18 14:17:33;;;;;;;10.38;5.35;;;;;;;;;;5005256;28;19910;-82
2023/03/18 14:20:16;;;;;;;10.25;5.63;;;;;;;;;;5013778;28;20018;-82
2023/03/18 14:22:43;;;;;;;9.18;6.05;;;;;;;;;;5015862;28;20041;-82
2023/03/18 14:25:21;;;;;;;9.13;5.05;;;;;;;;;;5021077;28;20022;-82
2023/03/18 14:27:54;;;;;;;9.07;5.53;;;;;;;;;;5022244;28;20022;-82
2023/03/18 14:30:30;;;;;;;7.97;5.10;;;;;;;;;;5024853;28;20113;-82
2023/03/18 14:32:57;;;;;;;8.50;4.95;;;;;;;;;;5017922;28;20030;-82
2023/03/18 14:35:28;;;;;;;9.48;5.63;;;;;;;;;;5018828;28;20072;-82
2023/03/18 14:38:02;;;;;;;9.85;5.38;;;;;;;;;;5014052;28;20399;-82
2023/03/18 14:40:30;;;;;;;10.15;5.60;;;;;;;;;;5018047;28;20042;-80
2023/03/18 14:43:00;;;;;;;9.50;5.57;;;;;;;;;;5022253;28;20026;-82
2023/03/18 14:45:36;;;;;;;10.07;6.00;;;;;;;;;;5001840;28;20022;-83
2023/03/18 14:48:05;;;;;;;9.20;5.40;;;;;;;;;;5015824;28;20030;-83
2023/03/18 14:50:39;;;;;;;9.10;5.10;;;;;;;;;;5017063;28;20061;-84
2023/03/18 14:53:05;;;;;;;11.73;6.28;;;;;;;;;;5003218;28;20141;-84
2023/03/18 14:55:35;;;;;;;8.93;4.93;;;;;;;;;;5013595;28;20017;-85
2023/03/18 14:58:03;;;;;;;10.07;5.55;;;;;;;;;;5000858;28;20030;-83
2023/03/18 15:00:32;;;;;;;8.13;4.90;;;;;;;;;;5012862;28;20029;-84
2023/03/18 15:03:00;;;;;;;9.73;5.03;;;;;;;;;;5007563;28;20033;-82